createdAt,value
2018-09-28T00:01:37.601Z,102244.09
2018-09-28T00:04:07.164Z,102243.99
2018-09-28T00:06:36.795Z,102216.17
2018-09-28T00:09:08.735Z,102221.05
2018-09-28T00:11:38.361Z,102216.64
2018-09-28T00:14:07.988Z,102179.77
2018-09-28T00:16:37.348Z,102217.11
2018-09-28T00:19:06.472Z,102204.29
2018-09-28T00:21:36.102Z,102214.45
2018-09-28T00:24:05.412Z,102190.41
2018-09-28T00:26:34.536Z,102205.55
2018-09-28T00:29:03.725Z,102189.91
2018-09-28T00:31:33.740Z,102179.30
2018-09-28T00:34:03.358Z,102182.84
2018-09-28T00:36:32.694Z,102168.55
2018-09-28T00:39:02.873Z,102187.02
2018-09-28T00:41:32.866Z,102174.19
2018-09-28T00:44:02.316Z,102186.41
2018-09-28T00:46:31.690Z,102153.24
2018-09-28T00:49:01.222Z,102179.03
2018-09-28T00:51:30.574Z,102156.90
2018-09-28T00:53:59.625Z,102189.31
2018-09-28T00:56:29.056Z,102181.81
2018-09-28T00:58:58.744Z,102162.20
2018-09-28T01:01:28.369Z,102158.10
2018-09-28T01:03:57.662Z,102165.71
2018-09-28T01:06:27.064Z,102171.02
2018-09-28T01:08:56.245Z,102197.39
2018-09-28T01:11:25.389Z,102158.38
2018-09-28T01:13:54.536Z,102159.81
2018-09-28T01:16:23.944Z,102146.97
2018-09-28T01:18:52.962Z,102139.08
2018-09-28T01:21:22.198Z,102147.88
2018-09-28T01:23:51.305Z,102135.74
2018-09-28T01:26:20.960Z,102154.39
2018-09-28T01:28:50.336Z,102130.30
2018-09-28T01:31:19.656Z,102152.95
2018-09-28T01:33:49.324Z,102140.98
2018-09-28T01:36:18.711Z,102131.98
2018-09-28T01:38:48.189Z,102153.45
2018-09-28T01:41:17.670Z,102151.78
2018-09-28T01:43:46.764Z,102149.52
2018-09-28T01:46:15.887Z,102140.84
2018-09-28T01:48:45.012Z,102146.67
2018-09-28T01:51:14.379Z,102149.33
2018-09-28T01:53:44.092Z,102161.22
2018-09-28T01:56:13.281Z,102132.77
2018-09-28T01:58:42.696Z,102128.73
2018-09-28T02:01:11.720Z,102159.77
2018-09-28T02:03:40.788Z,102139.79
2018-09-28T02:06:09.890Z,102152.05
2018-09-28T02:08:39.032Z,102149.67
2018-09-28T02:11:08.370Z,102157.05
2018-09-28T02:13:37.727Z,102138.05
2018-09-28T02:16:07.413Z,102188.23
2018-09-28T02:18:36.538Z,102198.88
2018-09-28T02:21:05.818Z,102175.39
2018-09-28T02:23:35.305Z,102185.58
2018-09-28T02:26:04.463Z,102152.86
2018-09-28T02:28:33.569Z,102145.14
2018-09-28T02:31:02.584Z,102149.66
2018-09-28T02:33:31.725Z,102150.36
2018-09-28T02:36:01.010Z,102128.17
2018-09-28T02:38:30.049Z,102154.09
2018-09-28T02:40:59.088Z,102130.28
2018-09-28T02:43:29.218Z,102108.16
2018-09-28T02:45:58.600Z,102107.74
2018-09-28T02:48:28.175Z,102074.56
2018-09-28T02:50:57.554Z,102082.55
2018-09-28T02:53:26.868Z,102062.20
2018-09-28T02:55:56.613Z,102069.78
2018-09-28T02:58:25.714Z,102078.53
2018-09-28T03:00:55.209Z,102070.31
2018-09-28T03:03:24.607Z,102123.28
2018-09-28T03:05:54.314Z,102116.35
2018-09-28T03:08:23.811Z,102121.13
2018-09-28T03:10:53.586Z,102122.13
2018-09-28T03:13:22.799Z,102118.84
2018-09-28T03:15:51.998Z,102115.03
2018-09-28T03:18:21.108Z,102098.34
2018-09-28T03:20:50.142Z,102089.52
2018-09-28T03:23:19.411Z,102109.12
2018-09-28T03:25:48.602Z,102107.89
2018-09-28T03:28:17.601Z,102097.02
2018-09-28T03:30:46.621Z,102157.27
2018-09-28T03:33:16.207Z,102131.77
2018-09-28T03:35:45.398Z,102099.38
2018-09-28T03:38:14.483Z,102135.05
2018-09-28T03:40:43.629Z,102105.55
2018-09-28T03:43:12.762Z,102100.58
2018-09-28T03:45:42.328Z,102096.80
2018-09-28T03:48:17.967Z,102097.94
2018-09-28T03:50:47.005Z,102069.53
2018-09-28T03:53:16.677Z,102113.30
2018-09-28T03:55:45.905Z,102117.76
2018-09-28T03:58:14.951Z,102124.72
2018-09-28T04:00:44.215Z,102103.00
2018-09-28T04:03:13.468Z,102115.05
2018-09-28T04:05:42.521Z,102077.44
2018-09-28T04:08:11.830Z,102098.33
2018-09-28T04:10:41.133Z,102082.48
2018-09-28T04:13:10.572Z,102092.59
2018-09-28T04:15:40.062Z,102093.44
2018-09-28T04:18:09.323Z,102078.68
2018-09-28T04:20:38.315Z,102109.00
2018-09-28T04:23:07.485Z,102069.61
2018-09-28T04:25:36.640Z,102115.18
2018-09-28T04:28:05.897Z,102093.16
2018-09-28T04:30:34.956Z,102102.31
2018-09-28T04:33:04.343Z,102098.87
2018-09-28T04:35:33.873Z,102098.50
2018-09-28T04:38:02.896Z,102105.03
2018-09-28T04:40:31.915Z,102100.13
2018-09-28T04:43:01.034Z,102105.94
2018-09-28T04:45:30.821Z,102105.27
2018-09-28T04:48:00.194Z,102097.84
2018-09-28T04:50:29.814Z,102080.23
2018-09-28T04:52:59.489Z,102077.59
2018-09-28T04:55:28.674Z,102090.63
2018-09-28T04:57:58.251Z,102082.23
2018-09-28T05:00:27.632Z,102093.02
2018-09-28T05:02:57.064Z,102074.54
2018-09-28T05:05:26.502Z,102078.44
2018-09-28T05:07:56.282Z,102070.70
2018-09-28T05:10:25.806Z,102093.36
2018-09-28T05:12:55.451Z,102091.63
2018-09-28T05:15:24.906Z,102079.28
2018-09-28T05:17:54.562Z,102074.47
2018-09-28T05:20:23.705Z,102076.50
2018-09-28T05:22:52.954Z,102049.39
2018-09-28T05:25:22.592Z,102082.32
2018-09-28T05:27:52.012Z,102067.70
2018-09-28T05:30:21.541Z,102070.41
2018-09-28T05:32:51.451Z,102068.16
2018-09-28T05:35:20.844Z,102053.34
2018-09-28T05:37:50.082Z,102067.13
2018-09-28T05:40:20.629Z,102076.06
2018-09-28T05:42:50.098Z,102086.97
2018-09-28T05:45:19.205Z,102083.47
2018-09-28T05:47:48.267Z,102078.57
2018-09-28T05:50:17.495Z,102087.84
2018-09-28T05:52:46.588Z,102098.76
2018-09-28T05:55:15.922Z,102097.22
2018-09-28T05:57:45.159Z,102078.38
2018-09-28T06:00:19.050Z,102072.55
2018-09-28T06:02:53.590Z,102080.89
2018-09-28T06:05:27.816Z,102078.67
2018-09-28T06:07:57.369Z,102086.41
2018-09-28T06:10:26.383Z,102072.08
2018-09-28T06:12:55.499Z,102086.23
2018-09-28T06:15:24.609Z,102078.16
2018-09-28T06:17:53.692Z,102067.74
2018-09-28T06:20:22.892Z,102062.22
2018-09-28T06:22:52.151Z,102061.34
2018-09-28T06:25:21.282Z,102066.00
2018-09-28T06:27:51.370Z,102062.75
2018-09-28T06:30:20.576Z,102057.75
2018-09-28T06:32:49.635Z,102060.04
2018-09-28T06:35:18.863Z,102066.28
2018-09-28T06:37:47.971Z,102054.64
2018-09-28T06:40:17.380Z,102063.23
2018-09-28T06:42:46.442Z,102061.27
2018-09-28T06:45:15.729Z,102052.11
2018-09-28T06:47:45.493Z,102067.33
2018-09-28T06:50:14.911Z,102065.50
2018-09-28T06:52:44.504Z,102054.00
2018-09-28T06:55:13.706Z,102040.50
2018-09-28T06:57:42.820Z,102031.17
2018-09-28T07:00:12.296Z,102040.66
2018-09-28T07:02:41.459Z,102058.46
2018-09-28T07:05:10.565Z,102040.64
2018-09-28T07:07:39.985Z,102040.88
2018-09-28T07:10:09.119Z,102028.38
2018-09-28T07:12:38.365Z,102040.16
2018-09-28T07:15:07.668Z,102018.94
2018-09-28T07:17:36.691Z,102011.73
2018-09-28T07:20:06.067Z,102032.38
2018-09-28T07:22:35.332Z,102022.75
2018-09-28T07:25:04.443Z,102012.73
2018-09-28T07:27:33.760Z,102015.30
2018-09-28T07:30:03.306Z,101993.89
2018-09-28T07:32:32.420Z,102003.34
2018-09-28T07:35:01.643Z,101998.28
2018-09-28T07:37:30.734Z,101997.64
2018-09-28T07:40:00.123Z,101996.11
2018-09-28T07:42:29.749Z,101992.70
2018-09-28T07:44:58.923Z,101996.41
2018-09-28T07:47:28.245Z,101987.91
2018-09-28T07:49:57.924Z,101981.16
2018-09-28T07:52:27.285Z,101969.92
2018-09-28T07:54:56.881Z,101973.95
2018-09-28T07:57:26.681Z,101974.71
2018-09-28T07:59:55.729Z,101979.27
2018-09-28T08:02:25.885Z,101980.33
2018-09-28T08:04:55.081Z,101976.33
2018-09-28T08:07:24.137Z,101972.06
2018-09-28T08:09:53.204Z,101961.02
2018-09-28T08:12:22.401Z,101967.64
2018-09-28T08:14:51.500Z,101966.27
2018-09-28T08:17:20.566Z,101963.52
2018-09-28T08:19:49.670Z,101962.47
2018-09-28T08:22:19.425Z,101959.70
2018-09-28T08:24:48.562Z,101964.52
2018-09-28T08:27:17.660Z,101963.37
2018-09-28T08:29:46.996Z,101960.66
2018-09-28T08:32:16.635Z,101959.00
2018-09-28T08:34:45.932Z,101959.32
2018-09-28T08:37:14.962Z,101954.76
2018-09-28T08:39:44.522Z,101952.83
2018-09-28T08:42:14.382Z,101942.09
2018-09-28T08:44:43.719Z,101940.77
2018-09-28T08:47:13.180Z,101931.35
2018-09-28T08:49:42.537Z,101916.47
2018-09-28T08:52:11.572Z,101922.13
2018-09-28T08:54:40.599Z,101921.67
2018-09-28T08:57:10.010Z,101924.80
2018-09-28T08:59:39.067Z,101923.31
2018-09-28T09:02:08.377Z,101917.27
2018-09-28T09:04:37.856Z,101914.98
2018-09-28T09:07:06.951Z,101915.42
2018-09-28T09:09:36.024Z,101911.44
2018-09-28T09:12:05.498Z,101909.20
2018-09-28T09:14:35.073Z,101916.02
2018-09-28T09:17:04.441Z,101905.38
2018-09-28T09:19:34.058Z,101899.61
2018-09-28T09:22:03.265Z,101900.58
2018-09-28T09:24:32.301Z,101892.91
2018-09-28T09:27:01.604Z,101882.75
2018-09-28T09:29:30.772Z,101895.17
2018-09-28T09:32:00.453Z,101887.21
2018-09-28T09:34:29.811Z,101885.88
2018-09-28T09:36:58.917Z,101881.36
2018-09-28T09:39:27.993Z,101876.33
2018-09-28T09:41:57.455Z,101877.73
2018-09-28T09:44:26.683Z,101874.61
2018-09-28T09:46:55.859Z,101874.28
2018-09-28T09:49:24.963Z,101867.42
2018-09-28T09:51:54.536Z,101867.71
2018-09-28T09:54:23.916Z,101859.45
2018-09-28T09:56:54.146Z,101862.19
2018-09-28T09:59:23.458Z,101859.31
2018-09-28T10:01:57.344Z,101857.48
2018-09-28T10:04:26.653Z,101862.11
2018-09-28T10:06:55.932Z,101853.25
2018-09-28T10:09:25.206Z,101853.16
2018-09-28T10:11:54.306Z,101847.58
2018-09-28T10:14:23.514Z,101842.71
2018-09-28T10:16:52.605Z,101846.25
2018-09-28T10:19:21.779Z,101843.28
2018-09-28T10:21:50.816Z,101840.72
2018-09-28T10:24:20.223Z,101836.84
2018-09-28T10:26:49.605Z,101827.27
2018-09-28T10:29:18.818Z,101823.30
2018-09-28T10:31:47.878Z,101818.75
2018-09-28T10:34:16.991Z,101817.22
2018-09-28T10:36:47.003Z,101810.14
2018-09-28T10:39:16.427Z,101809.27
2018-09-28T10:41:45.611Z,101812.94
2018-09-28T10:44:14.660Z,101814.16
2018-09-28T10:46:43.940Z,101808.84
2018-09-28T10:49:12.920Z,101809.84
2018-09-28T10:51:42.052Z,101810.84
2018-09-28T10:54:11.075Z,101808.48
2018-09-28T10:56:40.179Z,101799.58
2018-09-28T10:59:09.697Z,101780.13
2018-09-28T11:01:39.272Z,101780.93
2018-09-28T11:04:08.333Z,101775.77
2018-09-28T11:06:37.621Z,101773.02
2018-09-28T11:09:09.775Z,101775.58
2018-09-28T11:11:39.032Z,101763.41
2018-09-28T11:14:08.761Z,101768.23
2018-09-28T11:16:38.234Z,101762.63
2018-09-28T11:19:07.728Z,101765.77
2018-09-28T11:21:37.390Z,101751.70
2018-09-28T11:24:07.036Z,101740.52
2018-09-28T11:26:36.061Z,101745.84
2018-09-28T11:29:05.259Z,101739.67
2018-09-28T11:31:34.509Z,101739.05
2018-09-28T11:34:03.574Z,101736.49
2018-09-28T11:36:33.057Z,101723.69
2018-09-28T11:39:02.111Z,101725.80
2018-09-28T11:41:31.176Z,101716.53
2018-09-28T11:44:00.337Z,101681.63
2018-09-28T11:46:29.542Z,101705.41
2018-09-28T11:48:58.904Z,101696.94
2018-09-28T11:51:28.016Z,101699.26
2018-09-28T11:53:57.335Z,101695.35
2018-09-28T11:56:27.074Z,101690.55
2018-09-28T11:58:56.343Z,101687.41
2018-09-28T12:01:25.363Z,101685.59
2018-09-28T12:03:54.391Z,101684.55
2018-09-28T12:06:23.547Z,101678.59
2018-09-28T12:08:52.883Z,101677.48
2018-09-28T12:11:22.349Z,101671.25
2018-09-28T12:13:51.626Z,101676.59
2018-09-28T12:16:20.702Z,101676.45
2018-09-28T12:18:50.093Z,101670.76
2018-09-28T12:21:19.639Z,101671.88
2018-09-28T12:23:48.697Z,101670.67
2018-09-28T12:26:17.756Z,101667.61
2018-09-28T12:28:47.185Z,101674.75
2018-09-28T12:31:16.693Z,101673.22
2018-09-28T12:33:45.917Z,101659.53
2018-09-28T12:36:15.005Z,101669.66
2018-09-28T12:38:44.468Z,101664.73
2018-09-28T12:41:13.516Z,101652.87
2018-09-28T12:43:43.106Z,101663.00
2018-09-28T12:46:12.216Z,101643.44
2018-09-28T12:48:41.650Z,101641.52
2018-09-28T12:51:10.687Z,101645.88
2018-09-28T12:53:39.740Z,101628.27
2018-09-28T12:56:09.194Z,101641.46
2018-09-28T12:58:38.924Z,101636.34
2018-09-28T13:01:08.087Z,101639.74
2018-09-28T13:03:37.607Z,101635.42
2018-09-28T13:06:07.327Z,101635.53
2018-09-28T13:08:36.736Z,101632.91
2018-09-28T13:11:05.735Z,101630.11
2018-09-28T13:13:34.809Z,101621.95
2018-09-28T13:16:04.009Z,101626.36
2018-09-28T13:18:33.044Z,101619.25
2018-09-28T13:21:02.710Z,101609.78
2018-09-28T13:23:31.796Z,101603.09
2018-09-28T13:26:00.916Z,101599.49
2018-09-28T13:28:30.092Z,101601.55
2018-09-28T13:30:59.150Z,101591.84
2018-09-28T13:33:28.289Z,101595.61
2018-09-28T13:35:57.338Z,101593.83
2018-09-28T13:38:26.676Z,101591.84
2018-09-28T13:40:55.790Z,101583.34
2018-09-28T13:43:24.836Z,101586.00
2018-09-28T13:45:53.969Z,101576.59
2018-09-28T13:48:23.536Z,101571.48
2018-09-28T13:50:52.898Z,101576.25
2018-09-28T13:53:22.049Z,101563.22
2018-09-28T13:55:51.118Z,101571.41
2018-09-28T13:58:20.544Z,101558.63
2018-09-28T14:00:49.832Z,101554.70
2018-09-28T14:03:18.967Z,101551.13
2018-09-28T14:05:48.053Z,101551.48
2018-09-28T14:08:17.300Z,101543.06
2018-09-28T14:10:46.922Z,101545.13
2018-09-28T14:13:16.050Z,101543.49
2018-09-28T14:15:45.064Z,101540.00
2018-09-28T14:18:14.262Z,101536.48
2018-09-28T14:20:43.883Z,101541.87
2018-09-28T14:23:12.972Z,101547.63
2018-09-28T14:25:42.100Z,101550.70
2018-09-28T14:28:11.219Z,101543.73
2018-09-28T14:30:40.870Z,101547.35
2018-09-28T14:33:09.996Z,101537.44
2018-09-28T14:35:39.256Z,101543.92
2018-09-28T14:38:08.383Z,101546.14
2018-09-28T14:40:37.553Z,101540.19
2018-09-28T14:43:06.574Z,101537.76
2018-09-28T14:45:35.761Z,101534.41
2018-09-28T14:48:04.799Z,101529.09
2018-09-28T14:50:34.287Z,101535.86
2018-09-28T14:53:03.496Z,101526.76
2018-09-28T14:55:32.917Z,101522.14
2018-09-28T14:58:02.346Z,101514.68
2018-09-28T15:00:31.897Z,101506.59
2018-09-28T15:03:01.206Z,101501.86
2018-09-28T15:05:30.519Z,101497.06
2018-09-28T15:08:00.006Z,101491.39
2018-09-28T15:10:29.235Z,101488.16
2018-09-28T15:12:58.423Z,101478.83
2018-09-28T15:15:27.646Z,101480.81
2018-09-28T15:17:56.824Z,101478.59
2018-09-28T15:20:26.445Z,101475.36
2018-09-28T15:22:55.810Z,101472.11
2018-09-28T15:25:25.191Z,101478.94
2018-09-28T15:27:54.829Z,101472.88
2018-09-28T15:30:24.241Z,101470.30
2018-09-28T15:32:53.347Z,101466.63
2018-09-28T15:35:22.469Z,101466.24
2018-09-28T15:37:51.481Z,101467.03
2018-09-28T15:40:20.543Z,101467.16
2018-09-28T15:42:50.010Z,101474.33
2018-09-28T15:45:19.405Z,101475.58
2018-09-28T15:47:48.914Z,101469.52
2018-09-28T15:50:18.016Z,101474.18
2018-09-28T15:52:47.540Z,101483.19
2018-09-28T15:55:16.534Z,101476.94
2018-09-28T15:57:45.634Z,101471.48
2018-09-28T16:00:14.760Z,101474.83
2018-09-28T16:02:44.061Z,101473.86
2018-09-28T16:05:13.088Z,101471.86
2018-09-28T16:07:42.167Z,101466.17
2018-09-28T16:10:11.219Z,101470.31
2018-09-28T16:12:40.218Z,101457.96
2018-09-28T16:15:09.829Z,101464.66
2018-09-28T16:17:38.857Z,101466.68
2018-09-28T16:20:08.057Z,101458.20
2018-09-28T16:22:37.269Z,101459.52
2018-09-28T16:25:06.464Z,101454.92
2018-09-28T16:27:35.606Z,101455.47
2018-09-28T16:30:05.044Z,101454.25
2018-09-28T16:32:34.119Z,101449.71
2018-09-28T16:35:03.183Z,101446.22
2018-09-28T16:37:32.382Z,101445.72
2018-09-28T16:40:01.505Z,101444.39
2018-09-28T16:42:30.540Z,101443.50
2018-09-28T16:44:59.640Z,101434.47
2018-09-28T16:47:28.695Z,101429.22
2018-09-28T16:49:57.718Z,101433.50
2018-09-28T16:52:26.747Z,101435.77
2018-09-28T16:54:55.838Z,101437.63
2018-09-28T16:57:24.883Z,101443.72
2018-09-28T16:59:53.991Z,101443.95
2018-09-28T17:02:22.999Z,101446.42
2018-09-28T17:04:52.036Z,101446.86
2018-09-28T17:07:21.177Z,101446.60
2018-09-28T17:09:50.256Z,101441.81
2018-09-28T17:12:19.438Z,101445.94
2018-09-28T17:14:48.788Z,101445.12
2018-09-28T17:17:17.822Z,101447.51
2018-09-28T17:19:46.874Z,101450.98
2018-09-28T17:22:16.050Z,101447.50
2018-09-28T17:24:45.036Z,101445.09
2018-09-28T17:27:14.157Z,101451.91
2018-09-28T17:29:43.186Z,101454.52
2018-09-28T17:32:12.207Z,101447.84
2018-09-28T17:34:41.573Z,101443.47
2018-09-28T17:37:11.256Z,101441.02
2018-09-28T17:39:40.440Z,101453.92
2018-09-28T17:42:09.706Z,101452.59
2018-09-28T17:44:39.351Z,101453.63
2018-09-28T17:47:08.541Z,101454.16
2018-09-28T17:49:37.695Z,101451.91
2018-09-28T17:52:07.069Z,101444.89
2018-09-28T17:54:36.265Z,101450.64
2018-09-28T17:57:05.542Z,101446.19
2018-09-28T17:59:34.868Z,101446.06
2018-09-28T18:02:03.964Z,101438.48
2018-09-28T18:04:33.046Z,101444.13
2018-09-28T18:07:02.266Z,101450.04
2018-09-28T18:09:31.672Z,101454.20
2018-09-28T18:12:00.790Z,101452.91
2018-09-28T18:14:29.906Z,101445.33
2018-09-28T18:16:59.078Z,101439.76
2018-09-28T18:19:28.185Z,101450.20
2018-09-28T18:21:57.247Z,101444.67
2018-09-28T18:24:26.371Z,101447.98
2018-09-28T18:26:55.589Z,101441.54
2018-09-28T18:29:24.865Z,101440.31
2018-09-28T18:31:54.096Z,101447.16
2018-09-28T18:34:23.788Z,101438.55
2018-09-28T18:36:53.011Z,101437.79
2018-09-28T18:39:22.040Z,101443.73
2018-09-28T18:41:51.255Z,101431.95
2018-09-28T18:44:20.307Z,101432.74
2018-09-28T18:46:49.879Z,101433.77
2018-09-28T18:49:19.100Z,101436.30
2018-09-28T18:51:48.236Z,101428.95
2018-09-28T18:54:17.432Z,101427.20
2018-09-28T18:56:46.676Z,101431.54
2018-09-28T18:59:16.080Z,101440.98
2018-09-28T19:01:45.500Z,101434.88
2018-09-28T19:04:14.627Z,101426.09
2018-09-28T19:06:43.742Z,101426.83
2018-09-28T19:09:13.309Z,101429.59
2018-09-28T19:11:42.730Z,101422.61
2018-09-28T19:14:11.722Z,101432.84
2018-09-28T19:16:40.880Z,101434.44
2018-09-28T19:19:09.915Z,101428.02
2018-09-28T19:21:38.960Z,101425.33
2018-09-28T19:24:08.083Z,101437.48
2018-09-28T19:26:37.262Z,101416.40
2018-09-28T19:29:06.357Z,101404.81
2018-09-28T19:31:35.408Z,101401.03
2018-09-28T19:34:04.622Z,101407.86
2018-09-28T19:36:34.239Z,101416.69
2018-09-28T19:39:03.373Z,101411.30
2018-09-28T19:41:32.427Z,101402.94
2018-09-28T19:44:01.542Z,101396.50
2018-09-28T19:46:30.842Z,101408.12
2018-09-28T19:48:59.913Z,101406.89
2018-09-28T19:51:29.213Z,101404.69
2018-09-28T19:53:58.230Z,101410.69
2018-09-28T19:56:27.291Z,101400.16
2018-09-28T19:58:56.403Z,101415.66
2018-09-28T20:01:25.870Z,101385.58
2018-09-28T20:03:55.136Z,101379.31
2018-09-28T20:06:24.410Z,101371.25
2018-09-28T20:08:53.482Z,101369.51
2018-09-28T20:11:22.491Z,101381.81
2018-09-28T20:13:51.559Z,101374.73
2018-09-28T20:16:21.164Z,101374.36
2018-09-28T20:18:50.583Z,101387.70
2018-09-28T20:21:19.952Z,101380.50
2018-09-28T20:23:49.149Z,101388.83
2018-09-28T20:26:18.246Z,101390.32
2018-09-28T20:28:47.384Z,101382.55
2018-09-28T20:31:16.623Z,101392.63
2018-09-28T20:33:45.728Z,101393.95
2018-09-28T20:36:15.069Z,101390.03
2018-09-28T20:38:44.277Z,101383.20
2018-09-28T20:41:13.398Z,101388.67
2018-09-28T20:43:42.610Z,101391.14
2018-09-28T20:46:11.895Z,101392.95
2018-09-28T20:48:40.916Z,101404.88
2018-09-28T20:51:10.560Z,101399.19
2018-09-28T20:53:39.670Z,101392.99
2018-09-28T20:56:08.875Z,101400.84
2018-09-28T20:58:38.113Z,101388.62
2018-09-28T21:01:07.363Z,101394.03
2018-09-28T21:03:36.404Z,101391.08
2018-09-28T21:06:05.614Z,101402.27
2018-09-28T21:08:34.752Z,101389.59
2018-09-28T21:11:04.236Z,101386.84
2018-09-28T21:13:33.410Z,101389.87
2018-09-28T21:16:02.850Z,101397.36
2018-09-28T21:18:32.526Z,101384.34
2018-09-28T21:21:02.409Z,101385.52
2018-09-28T21:23:31.903Z,101388.92
2018-09-28T21:26:01.314Z,101377.68
2018-09-28T21:28:30.561Z,101375.29
2018-09-28T21:30:59.572Z,101374.41
2018-09-28T21:33:28.926Z,101379.66
2018-09-28T21:35:58.271Z,101368.87
2018-09-28T21:38:27.423Z,101371.13
2018-09-28T21:40:56.963Z,101368.27
2018-09-28T21:43:26.087Z,101374.92
2018-09-28T21:45:55.090Z,101378.11
2018-09-28T21:48:24.563Z,101381.44
2018-09-28T21:50:53.600Z,101359.00
2018-09-28T21:53:22.988Z,101367.31
2018-09-28T21:55:52.672Z,101373.83
2018-09-28T21:58:22.138Z,101368.35
2018-09-28T22:00:57.405Z,101365.87
2018-09-28T22:03:26.950Z,101365.97
2018-09-28T22:05:56.431Z,101365.97
2018-09-28T22:08:25.689Z,101364.94
2018-09-28T22:10:54.764Z,101368.27
2018-09-28T22:13:23.829Z,101374.77
2018-09-28T22:15:52.944Z,101362.86
2018-09-28T22:18:22.150Z,101363.58
2018-09-28T22:20:51.303Z,101370.41
2018-09-28T22:23:20.380Z,101369.16
2018-09-28T22:25:49.777Z,101357.16
2018-09-28T22:28:18.957Z,101361.75
2018-09-28T22:30:49.352Z,101361.88
2018-09-28T22:33:18.408Z,101362.09
2018-09-28T22:35:47.450Z,101362.55
2018-09-28T22:38:16.612Z,101351.13
2018-09-28T22:40:46.082Z,101349.95
2018-09-28T22:43:15.663Z,101337.14
2018-09-28T22:45:44.756Z,101343.53
2018-09-28T22:48:13.791Z,101339.13
2018-09-28T22:50:43.317Z,101334.26
2018-09-28T22:53:13.341Z,101341.96
2018-09-28T22:55:42.727Z,101338.25
2018-09-28T22:58:11.923Z,101345.91
2018-09-28T23:00:41.040Z,101347.38
2018-09-28T23:03:10.055Z,101354.78
2018-09-28T23:05:39.498Z,101351.67
2018-09-28T23:08:08.892Z,101344.88
2018-09-28T23:10:38.532Z,101338.06
2018-09-28T23:13:07.625Z,101343.76
2018-09-28T23:15:36.821Z,101322.30
2018-09-28T23:18:06.472Z,101330.58
2018-09-28T23:20:35.576Z,101341.17
2018-09-28T23:23:04.848Z,101323.30
2018-09-28T23:25:33.900Z,101313.03
2018-09-28T23:28:02.955Z,101327.92
2018-09-28T23:30:32.008Z,101314.15
2018-09-28T23:33:01.100Z,101321.38
2018-09-28T23:35:30.317Z,101302.83
2018-09-28T23:37:59.352Z,101304.66
2018-09-28T23:40:28.873Z,101291.62
2018-09-28T23:42:58.054Z,101302.23
2018-09-28T23:45:27.164Z,101297.61
2018-09-28T23:47:56.252Z,101286.67
2018-09-28T23:50:25.280Z,101297.56
2018-09-28T23:52:54.569Z,101287.71
2018-09-28T23:55:23.717Z,101289.03
2018-09-28T23:57:52.767Z,101291.24
